createdAt,value
2016-12-22T00:00:36.238Z,-86
2016-12-22T00:01:36.168Z,-86
2016-12-22T00:02:36.247Z,-86
2016-12-22T00:03:36.258Z,-87
2016-12-22T00:04:36.271Z,-86
2016-12-22T00:05:36.182Z,-86
2016-12-22T00:06:36.284Z,-87
2016-12-22T00:07:36.302Z,-87
2016-12-22T00:08:36.143Z,-87
2016-12-22T00:09:36.255Z,-87
2016-12-22T00:10:36.214Z,-87
2016-12-22T00:11:36.236Z,-88
2016-12-22T00:12:36.137Z,-87
2016-12-22T00:13:36.166Z,-88
2016-12-22T00:14:36.217Z,-88
2016-12-22T00:15:36.224Z,-90
2016-12-22T00:16:36.351Z,-90
2016-12-22T00:17:36.342Z,-91
2016-12-22T00:18:36.282Z,-90
2016-12-22T00:19:36.253Z,-91
2016-12-22T00:20:36.238Z,-91
2016-12-22T00:21:36.338Z,-91
2016-12-22T00:22:36.294Z,-91
2016-12-22T00:23:36.449Z,-90
2016-12-22T00:24:36.287Z,-90
2016-12-22T00:25:36.329Z,-90
2016-12-22T00:26:36.233Z,-91
2016-12-22T00:27:36.362Z,-92
2016-12-22T00:28:36.352Z,-92
2016-12-22T00:29:36.264Z,-93
2016-12-22T00:30:36.363Z,-92
2016-12-22T00:31:36.334Z,-93
2016-12-22T00:32:36.272Z,-93
2016-12-22T00:33:36.293Z,-92
2016-12-22T00:34:36.319Z,-91
2016-12-22T00:35:36.272Z,-93
2016-12-22T00:36:36.369Z,-94
2016-12-22T00:37:36.270Z,-92
2016-12-22T00:38:36.354Z,-93
2016-12-22T00:39:36.362Z,-93
2016-12-22T00:40:36.424Z,-93
2016-12-22T00:41:36.365Z,-92
2016-12-22T00:42:36.243Z,-91
2016-12-22T00:43:36.354Z,-92
2016-12-22T00:44:36.370Z,-92
2016-12-22T00:45:36.317Z,-92
2016-12-22T00:46:36.387Z,-92
2016-12-22T00:47:36.430Z,-93
2016-12-22T00:48:36.242Z,-92
2016-12-22T00:49:36.394Z,-92
2016-12-22T00:50:36.397Z,-93
2016-12-22T00:51:36.469Z,-93
2016-12-22T00:52:36.401Z,-92
2016-12-22T00:53:36.399Z,-93
2016-12-22T00:54:36.275Z,-92
2016-12-22T00:55:36.283Z,-91
2016-12-22T00:56:36.375Z,-92
2016-12-22T00:57:36.351Z,-92
2016-12-22T00:58:36.330Z,-93
2016-12-22T00:59:36.469Z,-92
2016-12-22T01:00:36.380Z,-92
2016-12-22T01:01:36.451Z,-92
2016-12-22T01:02:36.416Z,-91
2016-12-22T01:03:36.433Z,-93
2016-12-22T01:04:36.429Z,-93
2016-12-22T01:05:36.350Z,-92
2016-12-22T01:06:36.362Z,-93
2016-12-22T01:07:36.443Z,-93
2016-12-22T01:08:36.496Z,-93
2016-12-22T01:09:36.445Z,-92
2016-12-22T01:10:36.471Z,-91
2016-12-22T01:11:36.299Z,-93
2016-12-22T01:12:36.318Z,-94
2016-12-22T01:13:36.382Z,-93
2016-12-22T01:14:36.374Z,-93
2016-12-22T01:15:36.395Z,-93
2016-12-22T01:16:36.660Z,-94
2016-12-22T01:17:36.463Z,-93
2016-12-22T01:18:36.447Z,-93
2016-12-22T01:19:36.510Z,-93
2016-12-22T01:20:36.431Z,-93
2016-12-22T01:21:36.402Z,-93
2016-12-22T01:22:36.429Z,-93
2016-12-22T01:23:36.527Z,-93
2016-12-22T01:24:36.500Z,-93
2016-12-22T01:25:36.634Z,-89
2016-12-22T01:26:36.389Z,-91
2016-12-22T01:27:36.470Z,-88
2016-12-22T01:28:36.427Z,-93
2016-12-22T01:29:36.555Z,-92
2016-12-22T01:30:36.485Z,-93
2016-12-22T01:31:36.618Z,-92
2016-12-22T01:32:36.602Z,-92
2016-12-22T01:33:36.419Z,-92
2016-12-22T01:34:36.435Z,-92
2016-12-22T01:35:36.538Z,-91
2016-12-22T01:36:36.597Z,-92
2016-12-22T01:37:36.381Z,-93
2016-12-22T01:38:36.478Z,-92
2016-12-22T01:39:36.597Z,-93
2016-12-22T01:40:36.552Z,-94
2016-12-22T01:41:36.474Z,-93
2016-12-22T01:42:36.403Z,-93
2016-12-22T01:43:36.515Z,-92
2016-12-22T01:44:36.630Z,-93
2016-12-22T01:45:36.549Z,-92
2016-12-22T01:46:36.476Z,-94
2016-12-22T01:47:36.414Z,-92
2016-12-22T01:48:36.511Z,-93
2016-12-22T01:49:36.424Z,-93
2016-12-22T01:50:36.423Z,-92
2016-12-22T01:51:36.516Z,-93
2016-12-22T01:52:36.494Z,-93
2016-12-22T01:53:36.591Z,-94
2016-12-22T01:54:36.616Z,-94
2016-12-22T01:55:36.505Z,-94
2016-12-22T01:56:36.515Z,-93
2016-12-22T01:57:36.563Z,-93
2016-12-22T01:58:36.544Z,-94
2016-12-22T01:59:36.559Z,-93
2016-12-22T02:00:36.627Z,-95
2016-12-22T02:01:36.523Z,-94
2016-12-22T02:02:36.672Z,-93
2016-12-22T02:03:36.572Z,-94
2016-12-22T02:04:36.526Z,-93
2016-12-22T02:05:36.455Z,-94
2016-12-22T02:06:36.608Z,-94
2016-12-22T02:07:36.503Z,-94
2016-12-22T02:08:36.546Z,-93
2016-12-22T02:09:36.598Z,-93
2016-12-22T02:10:36.602Z,-94
2016-12-22T02:11:36.591Z,-94
2016-12-22T02:12:36.559Z,-95
2016-12-22T02:13:36.668Z,-94
2016-12-22T02:14:36.603Z,-94
2016-12-22T02:15:36.552Z,-93
2016-12-22T02:16:36.530Z,-93
2016-12-22T02:17:36.616Z,-94
2016-12-22T02:18:36.600Z,-95
2016-12-22T02:19:36.684Z,-95
2016-12-22T02:20:36.552Z,-94
2016-12-22T02:21:36.563Z,-94
2016-12-22T02:22:36.540Z,-95
2016-12-22T02:23:36.669Z,-96
2016-12-22T02:24:36.597Z,-94
2016-12-22T02:25:36.644Z,-94
2016-12-22T02:26:36.566Z,-94
2016-12-22T02:27:36.658Z,-95
2016-12-22T02:28:36.761Z,-94
2016-12-22T02:29:36.827Z,-93
2016-12-22T02:30:36.553Z,-95
2016-12-22T02:31:36.685Z,-94
2016-12-22T02:32:36.665Z,-94
2016-12-22T02:33:36.669Z,-94
2016-12-22T02:34:36.933Z,-94
2016-12-22T02:35:36.717Z,-94
2016-12-22T02:36:36.660Z,-90
2016-12-22T02:37:36.552Z,-92
2016-12-22T02:38:36.620Z,-91
2016-12-22T02:39:36.714Z,-93
2016-12-22T02:40:36.563Z,-95
2016-12-22T02:41:37.027Z,-94
2016-12-22T02:42:36.688Z,-95
2016-12-22T02:43:36.690Z,-94
2016-12-22T02:44:36.707Z,-95
2016-12-22T02:45:36.825Z,-95
2016-12-22T02:46:36.780Z,-95
2016-12-22T02:47:36.697Z,-95
2016-12-22T02:48:36.643Z,-95
2016-12-22T02:49:36.787Z,-96
2016-12-22T02:50:36.568Z,-95
2016-12-22T02:51:36.652Z,-95
2016-12-22T02:52:36.576Z,-95
2016-12-22T02:53:36.705Z,-95
2016-12-22T02:54:36.779Z,-95
2016-12-22T02:55:39.652Z,-95
2016-12-22T02:56:36.598Z,-95
2016-12-22T02:57:36.663Z,-95
2016-12-22T02:58:36.602Z,-95
2016-12-22T02:59:36.769Z,-95
2016-12-22T03:00:36.760Z,-95
2016-12-22T03:01:36.683Z,-95
2016-12-22T03:02:36.713Z,-96
2016-12-22T03:03:36.681Z,-96
2016-12-22T03:04:36.666Z,-95
2016-12-22T03:05:36.770Z,-95
2016-12-22T03:06:36.698Z,-94
2016-12-22T03:07:36.686Z,-95
2016-12-22T03:08:36.699Z,-96
2016-12-22T03:09:36.818Z,-96
2016-12-22T03:10:36.734Z,-95
2016-12-22T03:11:36.801Z,-94
2016-12-22T03:12:36.882Z,-94
2016-12-22T03:13:36.714Z,-94
2016-12-22T03:14:36.786Z,-96
2016-12-22T03:15:36.827Z,-95
2016-12-22T03:16:36.702Z,-95
2016-12-22T03:17:36.828Z,-89
2016-12-22T03:18:36.713Z,-89
2016-12-22T03:19:36.713Z,-90
2016-12-22T03:20:36.783Z,-93
2016-12-22T03:21:36.848Z,-96
2016-12-22T03:22:36.825Z,-94
2016-12-22T03:23:36.780Z,-94
2016-12-22T03:24:36.799Z,-96
2016-12-22T03:25:36.679Z,-95
2016-12-22T03:26:36.802Z,-95
2016-12-22T03:27:36.853Z,-95
2016-12-22T03:28:36.747Z,-94
2016-12-22T03:29:36.818Z,-95
2016-12-22T03:30:36.704Z,-95
2016-12-22T03:31:36.870Z,-95
2016-12-22T03:32:36.836Z,-95
2016-12-22T03:33:36.871Z,-95
2016-12-22T03:34:36.851Z,-96
2016-12-22T03:35:36.845Z,-95
2016-12-22T03:36:36.700Z,-95
2016-12-22T03:37:36.828Z,-96
2016-12-22T03:38:36.834Z,-96
2016-12-22T03:39:36.723Z,-95
2016-12-22T03:40:36.838Z,-96
2016-12-22T03:41:36.774Z,-95
2016-12-22T03:42:36.788Z,-95
2016-12-22T03:43:36.918Z,-95
2016-12-22T03:44:36.857Z,-95
2016-12-22T03:45:36.796Z,-94
2016-12-22T03:46:36.871Z,-95
2016-12-22T03:47:36.852Z,-95
2016-12-22T03:48:36.939Z,-96
2016-12-22T03:49:36.864Z,-96
2016-12-22T03:50:36.858Z,-95
2016-12-22T03:51:36.913Z,-95
2016-12-22T03:52:36.870Z,-95
2016-12-22T03:53:36.874Z,-95
2016-12-22T03:54:36.895Z,-95
2016-12-22T03:55:36.899Z,-96
2016-12-22T03:56:36.817Z,-94
2016-12-22T03:57:36.871Z,-95
2016-12-22T03:58:36.958Z,-96
2016-12-22T03:59:37.156Z,-95
2016-12-22T04:00:36.831Z,-95
2016-12-22T04:01:37.249Z,-96
2016-12-22T04:02:36.953Z,-95
2016-12-22T04:03:36.951Z,-95
2016-12-22T04:04:36.976Z,-96
2016-12-22T04:05:36.797Z,-95
2016-12-22T04:06:36.959Z,-95
2016-12-22T04:07:36.976Z,-95
2016-12-22T04:08:36.909Z,-96
2016-12-22T04:09:36.948Z,-95
2016-12-22T04:10:36.970Z,-95
2016-12-22T04:11:36.827Z,-96
2016-12-22T04:12:36.948Z,-96
2016-12-22T04:13:36.864Z,-96
2016-12-22T04:14:36.976Z,-94
2016-12-22T04:15:37.175Z,-94
2016-12-22T04:16:36.941Z,-95
2016-12-22T04:17:36.879Z,-95
2016-12-22T04:18:36.977Z,-96
2016-12-22T04:19:36.990Z,-96
2016-12-22T04:20:36.877Z,-96
2016-12-22T04:21:36.933Z,-96
2016-12-22T04:22:36.902Z,-96
2016-12-22T04:23:37.029Z,-96
2016-12-22T04:24:36.948Z,-96
2016-12-22T04:25:36.903Z,-96
2016-12-22T04:26:37.025Z,-96
2016-12-22T04:27:36.919Z,-96
2016-12-22T04:28:36.940Z,-96
2016-12-22T04:29:36.979Z,-96
2016-12-22T04:30:37.051Z,-96
2016-12-22T04:31:36.986Z,-96
2016-12-22T04:32:36.889Z,-96
2016-12-22T04:33:36.948Z,-96
2016-12-22T04:34:37.014Z,-96
2016-12-22T04:35:37.016Z,-90
2016-12-22T04:36:37.141Z,-91
2016-12-22T04:37:36.975Z,-93
2016-12-22T04:38:36.988Z,-91
2016-12-22T04:39:36.993Z,-90
2016-12-22T04:40:37.011Z,-95
2016-12-22T04:41:37.064Z,-93
2016-12-22T04:42:37.048Z,-93
2016-12-22T04:46:37.921Z,-95
2016-12-22T04:47:38.062Z,-93
2016-12-22T04:48:37.800Z,-94
2016-12-22T04:49:38.369Z,-92
2016-12-22T04:50:37.632Z,-94
2016-12-22T04:51:37.615Z,-94
2016-12-22T04:52:37.991Z,-92
2016-12-22T04:53:37.560Z,-94
2016-12-22T04:54:37.506Z,-93
2016-12-22T04:55:37.468Z,-94
2016-12-22T04:56:37.731Z,-95
2016-12-22T04:57:37.199Z,-95
2016-12-22T04:58:37.221Z,-95
2016-12-22T04:59:37.107Z,-95
2016-12-22T05:00:36.996Z,-95
2016-12-22T05:01:37.029Z,-95
2016-12-22T05:02:37.005Z,-95
2016-12-22T05:03:37.178Z,-95
2016-12-22T05:04:37.032Z,-94
2016-12-22T05:05:37.033Z,-94
2016-12-22T05:06:36.984Z,-94
2016-12-22T05:07:37.093Z,-95
2016-12-22T05:08:37.028Z,-94
2016-12-22T05:09:36.994Z,-88
2016-12-22T05:10:36.986Z,-90
2016-12-22T05:11:36.918Z,-90
2016-12-22T05:12:37.064Z,-95
2016-12-22T05:13:37.133Z,-95
2016-12-22T05:14:37.128Z,-96
2016-12-22T05:15:36.998Z,-95
2016-12-22T05:16:37.067Z,-96
2016-12-22T05:17:37.081Z,-96
2016-12-22T05:18:36.944Z,-96
2016-12-22T05:19:37.112Z,-96
2016-12-22T05:20:37.114Z,-91
2016-12-22T05:21:37.067Z,-95
2016-12-22T05:22:40.289Z,-94
2016-12-22T05:23:37.044Z,-89
2016-12-22T05:24:37.093Z,-90
2016-12-22T05:25:37.069Z,-92
2016-12-22T05:26:37.018Z,-91
2016-12-22T05:27:37.060Z,-89
2016-12-22T05:28:37.019Z,-88
2016-12-22T05:29:36.997Z,-92
2016-12-22T05:30:37.093Z,-88
2016-12-22T05:31:37.077Z,-90
2016-12-22T05:32:37.053Z,-95
2016-12-22T05:33:37.113Z,-93
2016-12-22T05:34:37.024Z,-90
2016-12-22T05:35:37.490Z,-89
2016-12-22T05:36:37.021Z,-94
2016-12-22T05:37:36.986Z,-96
2016-12-22T05:38:37.139Z,-93
2016-12-22T05:39:37.025Z,-96
2016-12-22T05:40:37.073Z,-95
2016-12-22T05:41:37.024Z,-95
2016-12-22T05:42:37.008Z,-96
2016-12-22T05:43:36.960Z,-96
2016-12-22T05:44:37.100Z,-96
2016-12-22T05:45:37.158Z,-96
2016-12-22T05:46:37.043Z,-95
2016-12-22T05:47:37.062Z,-96
2016-12-22T05:48:37.017Z,-95
2016-12-22T05:49:37.039Z,-96
2016-12-22T05:50:37.098Z,-96
2016-12-22T05:51:37.993Z,-96
2016-12-22T05:52:37.091Z,-94
2016-12-22T05:53:37.053Z,-96
2016-12-22T05:54:37.897Z,-96
2016-12-22T05:55:37.151Z,-95
2016-12-22T05:56:37.046Z,-96
2016-12-22T05:57:37.110Z,-96
2016-12-22T05:58:37.061Z,-96
2016-12-22T05:59:37.027Z,-95
2016-12-22T06:00:37.078Z,-96
2016-12-22T06:01:37.194Z,-94
2016-12-22T06:02:40.681Z,-96
2016-12-22T06:03:37.044Z,-96
2016-12-22T06:04:37.117Z,-96
2016-12-22T06:05:37.098Z,-96
2016-12-22T06:06:37.109Z,-96
2016-12-22T06:07:37.996Z,-96
2016-12-22T06:08:37.118Z,-95
2016-12-22T06:09:36.994Z,-96
2016-12-22T06:10:37.139Z,-96
2016-12-22T06:11:37.066Z,-96
2016-12-22T06:12:37.115Z,-95
2016-12-22T06:13:37.063Z,-93
2016-12-22T06:14:37.112Z,-89
2016-12-22T06:15:37.038Z,-94
2016-12-22T06:16:37.117Z,-96
2016-12-22T06:17:37.241Z,-96
2016-12-22T06:18:37.063Z,-96
2016-12-22T06:19:37.163Z,-96
2016-12-22T06:20:37.028Z,-96
2016-12-22T06:21:37.083Z,-95
2016-12-22T06:22:37.326Z,-96
2016-12-22T06:23:37.110Z,-96
2016-12-22T06:24:37.213Z,-96
2016-12-22T06:25:37.127Z,-96
2016-12-22T06:26:37.075Z,-96
2016-12-22T06:27:37.182Z,-95
2016-12-22T06:28:37.178Z,-95
2016-12-22T06:29:37.184Z,-96
2016-12-22T06:30:37.194Z,-95
2016-12-22T06:31:37.258Z,-95
2016-12-22T06:32:37.164Z,-94
2016-12-22T06:33:37.093Z,-96
2016-12-22T06:34:37.216Z,-96
2016-12-22T06:35:37.201Z,-95
2016-12-22T06:36:37.212Z,-96
2016-12-22T06:37:37.171Z,-94
2016-12-22T06:38:37.249Z,-95
2016-12-22T06:39:37.235Z,-96
2016-12-22T06:40:37.206Z,-96
2016-12-22T06:41:37.159Z,-95
2016-12-22T06:42:37.180Z,-96
2016-12-22T06:43:37.141Z,-96
2016-12-22T06:44:37.126Z,-96
2016-12-22T06:45:37.093Z,-96
2016-12-22T06:46:37.251Z,-95
2016-12-22T06:47:37.054Z,-95
2016-12-22T06:48:37.211Z,-96
2016-12-22T06:49:37.121Z,-96
2016-12-22T06:50:37.087Z,-96
2016-12-22T06:51:37.186Z,-96
2016-12-22T06:52:37.237Z,-96
2016-12-22T06:53:37.123Z,-96
2016-12-22T06:54:37.193Z,-96
2016-12-22T06:55:37.205Z,-96
2016-12-22T06:56:37.106Z,-96
2016-12-22T06:57:37.066Z,-95
2016-12-22T06:58:37.187Z,-96
2016-12-22T06:59:37.212Z,-95
2016-12-22T07:00:37.193Z,-96
2016-12-22T07:01:37.125Z,-89
2016-12-22T07:02:37.195Z,-87
2016-12-22T07:03:37.183Z,-88
2016-12-22T07:04:37.226Z,-96
2016-12-22T07:05:37.181Z,-95
2016-12-22T07:06:37.219Z,-94
2016-12-22T07:07:37.189Z,-96
2016-12-22T07:08:37.249Z,-90
2016-12-22T07:09:37.276Z,-88
2016-12-22T07:10:37.201Z,-89
2016-12-22T07:11:37.481Z,-88
2016-12-22T07:12:37.186Z,-88
2016-12-22T07:13:37.144Z,-89
2016-12-22T07:14:37.157Z,-89
2016-12-22T07:15:37.209Z,-88
2016-12-22T07:16:37.130Z,-88
2016-12-22T07:17:37.371Z,-88
2016-12-22T07:18:37.146Z,-89
2016-12-22T07:19:37.189Z,-89
2016-12-22T07:20:37.254Z,-88
2016-12-22T07:21:37.198Z,-89
2016-12-22T07:22:37.179Z,-89
2016-12-22T07:23:37.227Z,-89
2016-12-22T07:24:37.187Z,-89
2016-12-22T07:25:37.302Z,-88
2016-12-22T07:26:37.331Z,-89
2016-12-22T07:27:37.297Z,-89
2016-12-22T07:28:37.236Z,-88
2016-12-22T07:29:37.277Z,-89
2016-12-22T07:30:37.185Z,-89
2016-12-22T07:31:37.215Z,-89
2016-12-22T07:32:37.199Z,-88
2016-12-22T07:33:37.173Z,-88
2016-12-22T07:34:37.195Z,-89
2016-12-22T07:35:37.218Z,-89
2016-12-22T07:36:37.241Z,-89
2016-12-22T07:37:37.234Z,-88
2016-12-22T07:38:37.204Z,-89
2016-12-22T07:39:37.232Z,-89
2016-12-22T07:40:37.392Z,-89
2016-12-22T07:41:37.189Z,-89
2016-12-22T07:42:37.317Z,-89
2016-12-22T07:43:37.580Z,-88
2016-12-22T07:44:37.355Z,-89
2016-12-22T07:45:37.188Z,-88
2016-12-22T07:46:37.236Z,-89
2016-12-22T07:47:37.308Z,-89
2016-12-22T07:48:37.233Z,-88
2016-12-22T07:49:37.241Z,-88
2016-12-22T07:50:37.320Z,-89
2016-12-22T07:51:37.213Z,-89
2016-12-22T07:52:37.233Z,-88
2016-12-22T07:53:37.353Z,-88
2016-12-22T07:54:37.382Z,-88
2016-12-22T07:55:37.409Z,-89
2016-12-22T07:56:37.302Z,-89
2016-12-22T07:57:37.330Z,-88
2016-12-22T07:58:37.254Z,-88
2016-12-22T07:59:37.313Z,-88
2016-12-22T08:00:37.330Z,-88
2016-12-22T08:01:37.318Z,-88
2016-12-22T08:02:37.368Z,-88
2016-12-22T08:03:37.268Z,-88
2016-12-22T08:04:37.303Z,-89
2016-12-22T08:05:37.289Z,-88
2016-12-22T08:06:37.336Z,-88
2016-12-22T08:07:37.309Z,-89
2016-12-22T08:08:37.780Z,-89
2016-12-22T08:09:37.281Z,-88
2016-12-22T08:10:37.308Z,-88
2016-12-22T08:11:37.408Z,-88
2016-12-22T08:12:37.431Z,-89
2016-12-22T08:13:37.384Z,-88
2016-12-22T08:14:37.334Z,-88
2016-12-22T08:15:39.296Z,-88
2016-12-22T08:16:37.280Z,-88
2016-12-22T08:17:37.504Z,-86
2016-12-22T08:18:37.546Z,-89
2016-12-22T08:19:37.378Z,-88
2016-12-22T08:20:37.357Z,-88
2016-12-22T08:21:37.457Z,-90
2016-12-22T08:22:37.265Z,-88
2016-12-22T08:23:37.171Z,-89
2016-12-22T08:24:37.356Z,-89
2016-12-22T08:25:37.235Z,-88
2016-12-22T08:26:37.270Z,-89
2016-12-22T08:27:37.306Z,-89
2016-12-22T08:28:37.205Z,-89
2016-12-22T08:29:37.214Z,-89
2016-12-22T08:30:37.315Z,-89
2016-12-22T08:31:37.234Z,-89
2016-12-22T08:32:37.255Z,-89
2016-12-22T08:33:37.334Z,-89
2016-12-22T08:34:37.406Z,-89
2016-12-22T08:35:37.239Z,-89
2016-12-22T08:36:37.262Z,-89
2016-12-22T08:37:37.387Z,-89
2016-12-22T08:38:37.293Z,-89
2016-12-22T08:39:37.336Z,-89
2016-12-22T08:40:37.482Z,-89
2016-12-22T08:41:37.180Z,-89
2016-12-22T08:42:37.478Z,-88
2016-12-22T08:43:37.215Z,-89
2016-12-22T08:44:37.295Z,-89
2016-12-22T08:45:37.336Z,-89
2016-12-22T08:46:37.265Z,-89
2016-12-22T08:47:37.552Z,-89
2016-12-22T08:48:37.319Z,-89
2016-12-22T08:49:37.466Z,-89
2016-12-22T08:50:37.416Z,-89
2016-12-22T08:51:37.452Z,-89
2016-12-22T08:52:37.488Z,-89
2016-12-22T08:53:37.278Z,-89
2016-12-22T08:54:37.249Z,-90
2016-12-22T08:55:37.598Z,-90
2016-12-22T08:56:37.342Z,-90
2016-12-22T08:57:37.519Z,-90
2016-12-22T08:58:37.268Z,-89
2016-12-22T08:59:37.412Z,-90
2016-12-22T09:00:37.347Z,-89
2016-12-22T09:01:37.366Z,-90
2016-12-22T09:02:37.406Z,-89
2016-12-22T09:03:37.403Z,-89
2016-12-22T09:04:37.319Z,-90
2016-12-22T09:05:37.391Z,-90
2016-12-22T09:06:37.410Z,-90
2016-12-22T09:07:37.370Z,-90
2016-12-22T09:08:37.395Z,-89
2016-12-22T09:09:37.276Z,-90
2016-12-22T09:10:37.444Z,-91
2016-12-22T09:11:37.255Z,-91
2016-12-22T09:12:37.385Z,-90
2016-12-22T09:13:37.380Z,-91
2016-12-22T09:14:37.434Z,-93
2016-12-22T09:15:37.403Z,-93
2016-12-22T09:16:37.347Z,-91
2016-12-22T09:21:37.497Z,-93
2016-12-22T09:21:44.475Z,-95
2016-12-22T09:22:44.413Z,-94
2016-12-22T09:23:44.433Z,-95
2016-12-22T09:24:44.440Z,-95
2016-12-22T09:25:44.458Z,-94
2016-12-22T09:26:44.363Z,-95
2016-12-22T09:27:44.526Z,-94
2016-12-22T09:28:44.575Z,-95
2016-12-22T09:29:44.476Z,-95
2016-12-22T09:30:44.446Z,-95
2016-12-22T09:31:44.386Z,-94
2016-12-22T09:32:44.494Z,-94
2016-12-22T09:33:44.462Z,-94
2016-12-22T09:34:44.520Z,-94
2016-12-22T09:35:44.490Z,-95
2016-12-22T09:36:44.482Z,-95
2016-12-22T09:37:44.448Z,-94
2016-12-22T09:38:44.417Z,-94
2016-12-22T09:39:44.395Z,-94
2016-12-22T09:40:44.427Z,-94
2016-12-22T09:41:44.315Z,-93
2016-12-22T09:42:44.514Z,-94
2016-12-22T09:43:44.504Z,-95
2016-12-22T09:44:44.569Z,-95
2016-12-22T09:45:44.519Z,-94
2016-12-22T09:46:44.391Z,-94
2016-12-22T09:47:44.401Z,-96
2016-12-22T09:48:44.531Z,-96
2016-12-22T09:49:44.438Z,-96
2016-12-22T09:50:44.619Z,-95
2016-12-22T09:51:44.400Z,-94
2016-12-22T09:52:44.520Z,-94
2016-12-22T09:53:44.345Z,-95
2016-12-22T09:54:44.498Z,-94
2016-12-22T09:55:44.432Z,-94
2016-12-22T09:56:44.441Z,-94
2016-12-22T09:57:44.430Z,-96
2016-12-22T09:58:44.494Z,-90
2016-12-22T09:59:44.460Z,-91
2016-12-22T10:00:44.411Z,-91
2016-12-22T10:01:44.576Z,-90
2016-12-22T10:02:44.389Z,-90
2016-12-22T10:03:44.471Z,-90
2016-12-22T10:04:44.410Z,-90
2016-12-22T10:05:44.469Z,-91
2016-12-22T10:06:44.480Z,-89
2016-12-22T10:07:44.609Z,-89
2016-12-22T10:08:44.472Z,-88
2016-12-22T10:09:44.353Z,-90
2016-12-22T10:10:44.538Z,-89
2016-12-22T10:11:44.415Z,-89
2016-12-22T10:12:44.573Z,-91
2016-12-22T10:13:44.421Z,-91
2016-12-22T10:14:44.500Z,-88
2016-12-22T10:15:44.505Z,-90
2016-12-22T10:16:44.504Z,-89
2016-12-22T10:17:44.444Z,-90
2016-12-22T10:18:44.439Z,-88
2016-12-22T10:19:44.531Z,-88
2016-12-22T10:20:44.441Z,-89
2016-12-22T10:21:44.484Z,-89
2016-12-22T10:22:44.429Z,-89
2016-12-22T10:23:44.558Z,-90
2016-12-22T10:24:44.472Z,-90
2016-12-22T10:25:44.492Z,-90
2016-12-22T10:26:44.523Z,-88
2016-12-22T10:27:44.543Z,-89
2016-12-22T10:28:44.567Z,-89
2016-12-22T10:29:45.506Z,-89
2016-12-22T10:30:44.533Z,-89
2016-12-22T10:31:44.543Z,-89
2016-12-22T10:32:44.491Z,-89
2016-12-22T10:33:44.400Z,-89
2016-12-22T10:34:44.451Z,-89
2016-12-22T10:35:44.565Z,-88
2016-12-22T10:36:44.608Z,-88
2016-12-22T10:37:44.495Z,-88
2016-12-22T10:38:44.737Z,-89
2016-12-22T10:39:44.565Z,-89
2016-12-22T10:40:44.468Z,-89
2016-12-22T10:41:44.506Z,-88
2016-12-22T10:42:44.535Z,-89
2016-12-22T10:43:45.327Z,-89
2016-12-22T10:44:44.577Z,-89
2016-12-22T10:45:44.516Z,-88
2016-12-22T10:46:44.551Z,-89
2016-12-22T10:47:44.590Z,-89
2016-12-22T10:48:44.541Z,-89
2016-12-22T10:49:44.477Z,-88
2016-12-22T10:50:44.556Z,-89
2016-12-22T10:51:44.522Z,-89
2016-12-22T10:52:44.476Z,-89
2016-12-22T10:53:44.545Z,-89
2016-12-22T10:54:44.585Z,-89
2016-12-22T10:55:45.471Z,-88
2016-12-22T10:56:44.537Z,-88
2016-12-22T10:57:44.604Z,-89
2016-12-22T10:58:44.519Z,-89
2016-12-22T10:59:44.551Z,-90
2016-12-22T11:00:44.637Z,-89
2016-12-22T11:01:44.534Z,-88
2016-12-22T11:02:44.558Z,-88
2016-12-22T11:03:44.651Z,-88
2016-12-22T11:04:44.713Z,-89
2016-12-22T11:05:44.694Z,-88
2016-12-22T11:06:44.947Z,-88
2016-12-22T11:07:44.832Z,-89
2016-12-22T11:08:44.582Z,-88
2016-12-22T11:09:44.682Z,-88
2016-12-22T11:10:44.801Z,-88
2016-12-22T11:11:44.652Z,-88
2016-12-22T11:12:44.493Z,-88
2016-12-22T11:13:44.531Z,-88
2016-12-22T11:14:44.544Z,-88
2016-12-22T11:15:44.448Z,-88
2016-12-22T11:16:44.485Z,-88
2016-12-22T11:17:44.624Z,-88
2016-12-22T11:18:44.486Z,-87
2016-12-22T11:19:44.542Z,-87
2016-12-22T11:20:45.381Z,-88
2016-12-22T11:21:44.604Z,-89
2016-12-22T11:22:44.983Z,-87
2016-12-22T11:23:44.643Z,-87
2016-12-22T11:24:44.529Z,-88
2016-12-22T11:25:44.659Z,-88
2016-12-22T11:26:44.604Z,-88
2016-12-22T11:27:44.579Z,-88
2016-12-22T11:28:44.520Z,-88
2016-12-22T11:29:44.515Z,-88
2016-12-22T11:30:44.620Z,-88
2016-12-22T11:31:44.556Z,-88
2016-12-22T11:32:44.563Z,-88
2016-12-22T11:33:44.529Z,-88
2016-12-22T11:34:44.613Z,-88
2016-12-22T11:35:44.530Z,-88
2016-12-22T11:36:44.631Z,-88
2016-12-22T11:37:44.592Z,-88
2016-12-22T11:38:44.502Z,-88
2016-12-22T11:39:44.568Z,-88
2016-12-22T11:40:44.737Z,-88
2016-12-22T11:41:44.732Z,-88
2016-12-22T11:42:44.649Z,-88
2016-12-22T11:43:45.454Z,-88
2016-12-22T11:44:44.582Z,-88
2016-12-22T11:45:44.608Z,-88
2016-12-22T11:46:44.603Z,-88
2016-12-22T11:47:45.438Z,-88
2016-12-22T11:48:44.580Z,-87
2016-12-22T11:49:44.605Z,-88
2016-12-22T11:50:44.659Z,-88
2016-12-22T11:51:44.571Z,-88
2016-12-22T11:52:52.483Z,-88
2016-12-22T11:53:51.050Z,-88
2016-12-22T11:54:46.009Z,-88
2016-12-22T11:55:48.374Z,-88
2016-12-22T11:56:44.633Z,-88
2016-12-22T11:57:45.429Z,-88
2016-12-22T11:58:44.694Z,-89
2016-12-22T11:59:44.596Z,-88
2016-12-22T12:00:44.548Z,-88
2016-12-22T12:01:44.670Z,-88
2016-12-22T12:02:44.632Z,-88
2016-12-22T12:03:44.686Z,-88
2016-12-22T12:04:44.657Z,-88
2016-12-22T12:05:44.632Z,-88
2016-12-22T12:06:44.715Z,-88
2016-12-22T12:07:44.570Z,-88
2016-12-22T12:08:44.742Z,-88
2016-12-22T12:09:46.225Z,-88
2016-12-22T12:10:44.864Z,-88
2016-12-22T12:11:44.638Z,-88
2016-12-22T12:12:45.972Z,-88
2016-12-22T12:13:44.689Z,-88
2016-12-22T12:14:46.878Z,-88
2016-12-22T12:15:44.642Z,-88
2016-12-22T12:16:44.665Z,-87
2016-12-22T12:17:44.630Z,-86
2016-12-22T12:18:44.699Z,-89
2016-12-22T12:19:44.692Z,-88
2016-12-22T12:20:45.138Z,-88
2016-12-22T12:21:44.620Z,-88
2016-12-22T12:22:44.587Z,-88
2016-12-22T12:23:44.597Z,-88
2016-12-22T12:24:44.630Z,-89
2016-12-22T12:25:44.610Z,-88
2016-12-22T12:26:44.667Z,-88
2016-12-22T12:27:44.731Z,-88
2016-12-22T12:28:44.712Z,-88
2016-12-22T12:29:44.697Z,-88
2016-12-22T12:30:44.730Z,-88
2016-12-22T12:31:44.836Z,-88
2016-12-22T12:32:45.244Z,-88
2016-12-22T12:33:45.294Z,-88
2016-12-22T12:34:44.695Z,-89
2016-12-22T12:35:44.680Z,-89
2016-12-22T12:36:44.639Z,-88
2016-12-22T12:37:44.648Z,-89
2016-12-22T12:38:44.666Z,-89
2016-12-22T12:39:44.808Z,-89
2016-12-22T12:40:44.631Z,-89
2016-12-22T12:41:45.047Z,-88
2016-12-22T12:42:44.667Z,-89
2016-12-22T12:43:45.349Z,-88
2016-12-22T12:44:44.769Z,-89
2016-12-22T12:45:44.614Z,-89
2016-12-22T12:46:45.206Z,-89
2016-12-22T12:47:44.647Z,-88
2016-12-22T12:48:44.675Z,-88
2016-12-22T12:49:44.766Z,-89
2016-12-22T12:50:44.640Z,-89
2016-12-22T12:51:44.707Z,-88
2016-12-22T12:52:44.795Z,-88
2016-12-22T12:53:44.810Z,-89
2016-12-22T12:54:44.665Z,-89
2016-12-22T12:55:44.730Z,-89
2016-12-22T12:56:44.741Z,-90
2016-12-22T12:57:44.777Z,-89
2016-12-22T12:58:44.643Z,-90
2016-12-22T12:59:44.690Z,-89
2016-12-22T13:00:44.811Z,-88
2016-12-22T13:01:44.732Z,-88
2016-12-22T13:02:44.787Z,-89
2016-12-22T13:03:44.667Z,-89
2016-12-22T13:04:44.725Z,-89
2016-12-22T13:05:44.824Z,-89
2016-12-22T13:06:44.684Z,-89
2016-12-22T13:07:44.753Z,-89
2016-12-22T13:08:44.703Z,-90
2016-12-22T13:09:44.726Z,-89
2016-12-22T13:10:44.679Z,-89
2016-12-22T13:11:44.805Z,-89
2016-12-22T13:12:44.739Z,-89
2016-12-22T13:13:44.760Z,-89
2016-12-22T13:14:44.846Z,-89
2016-12-22T13:15:44.854Z,-89
2016-12-22T13:16:44.752Z,-89
2016-12-22T13:17:44.777Z,-89
2016-12-22T13:18:44.805Z,-89
2016-12-22T13:19:44.725Z,-89
2016-12-22T13:20:44.714Z,-90
2016-12-22T13:21:44.660Z,-90
2016-12-22T13:22:44.679Z,-90
2016-12-22T13:23:44.776Z,-89
2016-12-22T13:24:44.688Z,-90
2016-12-22T13:25:44.722Z,-91
2016-12-22T13:26:44.725Z,-90
2016-12-22T13:27:44.632Z,-90
2016-12-22T13:28:44.713Z,-89
2016-12-22T13:29:44.711Z,-90
2016-12-22T13:30:44.757Z,-90
2016-12-22T13:31:44.773Z,-91
2016-12-22T13:32:44.740Z,-91
2016-12-22T13:33:44.741Z,-90
2016-12-22T13:34:44.936Z,-90
2016-12-22T13:35:44.856Z,-90
2016-12-22T13:36:44.755Z,-88
2016-12-22T13:37:44.640Z,-88
2016-12-22T13:38:44.775Z,-90
2016-12-22T13:39:44.761Z,-89
2016-12-22T13:40:45.233Z,-89
2016-12-22T13:41:44.637Z,-89
2016-12-22T13:42:44.667Z,-89
2016-12-22T13:43:44.691Z,-89
2016-12-22T13:44:44.731Z,-89
2016-12-22T13:45:44.844Z,-89
2016-12-22T13:46:44.761Z,-89
2016-12-22T13:47:44.779Z,-89
2016-12-22T13:48:44.718Z,-89
2016-12-22T13:49:44.791Z,-89
2016-12-22T13:50:45.070Z,-89
2016-12-22T13:51:44.655Z,-89
2016-12-22T13:52:44.947Z,-88